createdAt,value
2022-08-18T00:02:05.957Z,99.90
2022-08-18T00:04:48.587Z,99.90
2022-08-18T00:07:19.942Z,99.90
2022-08-18T00:09:48.032Z,99.90
2022-08-18T00:12:18.963Z,99.90
2022-08-18T00:14:47.737Z,99.90
2022-08-18T00:17:19.186Z,99.90
2022-08-18T00:19:48.417Z,99.90
2022-08-18T00:22:20.353Z,99.90
2022-08-18T00:24:52.996Z,99.90
2022-08-18T00:27:23.420Z,99.90
2022-08-18T00:29:54.077Z,99.90
2022-08-18T00:32:25.311Z,99.90
2022-08-18T00:34:54.787Z,99.90
2022-08-18T00:37:24.134Z,99.90
2022-08-18T00:39:53.794Z,99.90
2022-08-18T00:42:27.594Z,99.90
2022-08-18T00:45:03.455Z,99.90
2022-08-18T00:47:43.083Z,99.90
2022-08-18T00:50:16.031Z,99.90
2022-08-18T00:52:49.115Z,99.90
2022-08-18T00:55:19.576Z,99.90
2022-08-18T00:57:50.941Z,99.90
2022-08-18T01:00:19.807Z,99.90
2022-08-18T01:02:52.769Z,99.90
2022-08-18T01:05:26.169Z,99.90
2022-08-18T01:07:54.382Z,99.90
2022-08-18T01:10:25.106Z,99.90
2022-08-18T01:12:58.609Z,99.90
2022-08-18T01:15:30.344Z,99.90
2022-08-18T01:18:22.651Z,99.90
2022-08-18T01:21:14.668Z,99.90
2022-08-18T01:23:44.755Z,99.90
2022-08-18T01:26:12.226Z,99.90
2022-08-18T01:28:43.150Z,99.90
2022-08-18T01:31:15.829Z,99.90
2022-08-18T01:33:45.723Z,99.90
2022-08-18T01:36:17.033Z,99.90
2022-08-18T01:38:48.714Z,99.90
2022-08-18T01:41:28.684Z,99.90
2022-08-18T01:43:58.837Z,99.90
2022-08-18T01:46:28.983Z,99.90
2022-08-18T01:48:58.697Z,99.90
2022-08-18T01:51:40.026Z,99.90
2022-08-18T01:54:12.967Z,99.90
2022-08-18T01:56:42.521Z,99.90
2022-08-18T01:59:14.755Z,99.90
2022-08-18T02:01:48.354Z,99.90
2022-08-18T02:04:36.645Z,99.90
2022-08-18T02:07:08.934Z,99.90
2022-08-18T02:09:40.996Z,99.90
2022-08-18T02:12:10.142Z,99.90
2022-08-18T02:14:41.284Z,99.90
2022-08-18T02:17:12.343Z,99.90
2022-08-18T02:19:42.702Z,99.90
2022-08-18T02:22:13.630Z,99.90
2022-08-18T02:24:43.502Z,99.90
2022-08-18T02:27:14.079Z,99.90
2022-08-18T02:29:42.874Z,99.90
2022-08-18T02:32:11.619Z,99.90
2022-08-18T02:34:40.921Z,99.90
2022-08-18T02:37:14.368Z,99.90
2022-08-18T02:39:45.240Z,99.90
2022-08-18T02:42:14.878Z,99.90
2022-08-18T02:44:43.097Z,99.90
2022-08-18T02:47:11.348Z,99.90
2022-08-18T02:49:39.613Z,99.90
2022-08-18T02:52:07.898Z,99.90
2022-08-18T02:54:36.615Z,99.90
2022-08-18T02:57:10.762Z,99.90
2022-08-18T02:59:40.252Z,99.90
2022-08-18T03:02:09.991Z,99.90
2022-08-18T03:04:38.295Z,99.90
2022-08-18T03:07:08.382Z,99.90
2022-08-18T03:09:37.391Z,99.90
2022-08-18T03:12:07.591Z,99.90
2022-08-18T03:14:40.171Z,99.90
2022-08-18T03:17:10.042Z,99.90
2022-08-18T03:19:38.311Z,99.90
2022-08-18T03:22:24.294Z,99.90
2022-08-18T03:24:57.188Z,99.90
2022-08-18T03:27:25.660Z,99.90
2022-08-18T03:29:55.733Z,99.90
2022-08-18T03:32:23.982Z,99.90
2022-08-18T03:34:52.272Z,99.90
2022-08-18T03:37:20.355Z,99.90
2022-08-18T03:39:51.857Z,99.90
2022-08-18T03:42:20.016Z,99.90
2022-08-18T03:44:48.260Z,99.90
2022-08-18T03:47:18.263Z,99.90
2022-08-18T03:49:47.005Z,99.90
2022-08-18T03:52:15.297Z,99.90
2022-08-18T03:54:43.379Z,99.90
2022-08-18T03:57:12.928Z,99.90
2022-08-18T03:59:43.736Z,99.90
2022-08-18T04:02:12.955Z,99.90
2022-08-18T04:04:43.169Z,99.90
2022-08-18T04:07:14.424Z,99.90
2022-08-18T04:09:43.376Z,99.90
2022-08-18T04:12:16.572Z,99.90
2022-08-18T04:14:49.708Z,99.90
2022-08-18T04:17:24.903Z,99.90
2022-08-18T04:19:55.301Z,99.90
2022-08-18T04:22:26.489Z,99.90
2022-08-18T04:25:03.881Z,99.90
2022-08-18T04:27:32.272Z,99.90
2022-08-18T04:30:01.981Z,99.90
2022-08-18T04:32:35.344Z,99.90
2022-08-18T04:35:14.192Z,99.90
2022-08-18T04:37:46.875Z,99.90
2022-08-18T04:40:25.288Z,99.90
2022-08-18T04:42:56.644Z,99.90
2022-08-18T04:45:33.505Z,99.90
2022-08-18T04:48:04.165Z,99.90
2022-08-18T04:53:47.781Z,99.90
2022-08-18T04:56:28.041Z,99.90
2022-08-18T04:59:02.155Z,99.90
2022-08-18T05:01:37.595Z,99.90
2022-08-18T05:04:09.117Z,99.90
2022-08-18T05:07:15.351Z,99.90
2022-08-18T05:09:50.504Z,99.90
2022-08-18T05:12:34.057Z,99.90
2022-08-18T05:15:02.400Z,99.90
2022-08-18T05:17:31.241Z,99.90
2022-08-18T05:20:01.524Z,99.90
2022-08-18T05:22:32.048Z,99.90
2022-08-18T05:25:01.278Z,99.90
2022-08-18T05:27:34.113Z,99.90
2022-08-18T05:30:15.707Z,99.90
2022-08-18T05:32:54.752Z,99.90
2022-08-18T05:35:57.256Z,99.90
2022-08-18T05:38:42.501Z,99.90
2022-08-18T05:41:14.933Z,99.90
2022-08-18T05:43:52.174Z,99.90
2022-08-18T05:46:25.582Z,99.90
2022-08-18T05:48:57.926Z,99.90
2022-08-18T05:51:32.163Z,99.90
2022-08-18T05:54:21.048Z,99.90
2022-08-18T05:56:53.027Z,99.90
2022-08-18T05:59:26.126Z,99.90
2022-08-18T06:02:00.498Z,99.90
2022-08-18T06:04:37.362Z,99.90
2022-08-18T06:07:08.288Z,99.90
2022-08-18T06:09:43.542Z,99.90
2022-08-18T06:12:20.126Z,99.90
2022-08-18T06:14:48.206Z,99.90
2022-08-18T06:17:37.833Z,99.90
2022-08-18T06:20:15.436Z,99.90
2022-08-18T06:22:55.526Z,99.90
2022-08-18T06:25:33.902Z,99.90
2022-08-18T06:28:05.870Z,99.90
2022-08-18T06:30:47.241Z,99.90
2022-08-18T06:33:31.927Z,99.90
2022-08-18T06:36:04.878Z,99.90
2022-08-18T06:38:48.763Z,99.90
2022-08-18T06:41:43.254Z,99.90
2022-08-18T06:44:11.503Z,99.90
2022-08-18T06:46:46.698Z,99.90
2022-08-18T06:49:24.074Z,99.90
2022-08-18T06:51:51.973Z,99.90
2022-08-18T06:54:31.065Z,99.90
2022-08-18T06:57:00.466Z,99.90
2022-08-18T06:59:30.983Z,99.90
2022-08-18T07:02:02.127Z,99.90
2022-08-18T07:04:37.273Z,99.90
2022-08-18T07:07:18.436Z,99.90
2022-08-18T07:09:46.367Z,99.90
2022-08-18T07:12:23.406Z,99.90
2022-08-18T07:14:54.453Z,99.90
2022-08-18T07:17:42.433Z,99.90
2022-08-18T07:20:21.505Z,99.90
2022-08-18T07:22:54.767Z,99.90
2022-08-18T07:25:25.780Z,99.90
2022-08-18T07:27:56.719Z,99.90
2022-08-18T07:30:32.156Z,99.90
2022-08-18T07:33:09.505Z,99.90
2022-08-18T07:35:41.231Z,99.90
2022-08-18T07:38:40.798Z,99.90
2022-08-18T07:41:09.115Z,99.90
2022-08-18T07:43:43.966Z,99.90
2022-08-18T07:46:17.187Z,99.90
2022-08-18T07:48:45.061Z,99.90
2022-08-18T07:51:20.444Z,99.90
2022-08-18T07:53:57.521Z,99.90
2022-08-18T07:56:37.771Z,99.90
2022-08-18T07:59:14.975Z,99.90
2022-08-18T08:01:49.811Z,99.90
2022-08-18T08:04:29.106Z,99.90
2022-08-18T08:07:23.791Z,99.90
2022-08-18T08:10:02.345Z,99.90
2022-08-18T08:12:36.975Z,99.90
2022-08-18T08:15:17.699Z,99.90
2022-08-18T08:17:56.741Z,99.90
2022-08-18T08:20:32.990Z,99.90
2022-08-18T08:23:15.117Z,99.90
2022-08-18T08:25:53.912Z,99.90
2022-08-18T08:28:38.137Z,99.90
2022-08-18T08:31:38.089Z,99.90
2022-08-18T08:34:08.384Z,99.90
2022-08-18T08:36:41.235Z,99.90
2022-08-18T08:39:15.408Z,99.90
2022-08-18T08:41:49.204Z,99.90
2022-08-18T08:44:23.180Z,99.90
2022-08-18T08:46:57.839Z,99.90
2022-08-18T08:49:42.708Z,99.90
2022-08-18T08:52:19.182Z,99.90
2022-08-18T08:54:52.364Z,99.90
2022-08-18T08:57:23.297Z,99.90
2022-08-18T08:59:52.806Z,99.90
2022-08-18T09:02:48.173Z,99.90
2022-08-18T09:05:20.760Z,99.90
2022-08-18T09:08:19.408Z,99.90
2022-08-18T09:11:18.842Z,99.90
2022-08-18T09:14:30.994Z,99.90
2022-08-18T09:17:17.296Z,99.90
2022-08-18T09:20:06.689Z,99.90
2022-08-18T09:22:42.466Z,99.90
2022-08-18T09:25:12.946Z,99.90
2022-08-18T09:28:09.554Z,99.90
2022-08-18T09:30:43.542Z,99.90
2022-08-18T09:33:21.036Z,99.50
2022-08-18T09:36:06.365Z,99.20
2022-08-18T09:39:05.940Z,99.90
2022-08-18T09:41:45.785Z,99.80
2022-08-18T09:44:56.000Z,99.90
2022-08-18T09:47:58.649Z,99.90
2022-08-18T09:50:40.457Z,99.70
2022-08-18T09:53:36.867Z,98.60
2022-08-18T09:56:06.639Z,98.60
2022-08-18T09:59:02.166Z,97.90
2022-08-18T10:01:40.677Z,97.40
2022-08-18T10:04:34.158Z,96.00
2022-08-18T10:07:19.695Z,95.50
2022-08-18T10:10:58.965Z,94.90
2022-08-18T10:13:24.801Z,93.30
2022-08-18T10:16:11.482Z,92.90
2022-08-18T10:19:08.267Z,92.80
2022-08-18T10:22:06.583Z,93.10
2022-08-18T10:25:09.151Z,93.40
2022-08-18T10:27:57.321Z,90.60
2022-08-18T10:31:11.831Z,88.40
2022-08-18T10:34:16.049Z,88.90
2022-08-18T10:36:51.637Z,87.80
2022-08-18T10:39:23.398Z,87.30
2022-08-18T10:42:03.098Z,86.90
2022-08-18T10:44:46.489Z,85.40
2022-08-18T10:47:36.749Z,83.90
2022-08-18T10:50:19.950Z,84.80
2022-08-18T10:53:35.396Z,83.90
2022-08-18T10:56:05.259Z,82.20
2022-08-18T11:02:37.508Z,81.40
2022-08-18T11:05:13.962Z,82.20
2022-08-18T11:07:53.446Z,81.30
2022-08-18T11:10:58.190Z,79.60
2022-08-18T11:13:47.720Z,78.30
2022-08-18T11:23:32.404Z,74.80
2022-08-18T11:26:39.668Z,74.30
2022-08-18T11:29:28.838Z,75.40
2022-08-18T11:32:02.055Z,78.30
2022-08-18T11:34:38.538Z,77.80
2022-08-18T11:37:25.635Z,79.60
2022-08-18T11:39:58.094Z,79.40
2022-08-18T11:42:31.157Z,78.30
2022-08-18T11:45:07.933Z,80.00
2022-08-18T11:47:39.144Z,80.00
2022-08-18T11:50:13.338Z,79.30
2022-08-18T11:52:53.851Z,78.70
2022-08-18T11:55:31.882Z,79.20
2022-08-18T11:58:00.767Z,80.90
2022-08-18T12:01:01.368Z,81.40
2022-08-18T12:03:38.355Z,80.50
2022-08-18T12:06:26.796Z,81.00
2022-08-18T12:09:00.657Z,79.90
2022-08-18T12:11:32.946Z,77.50
2022-08-18T12:14:32.559Z,78.90
2022-08-18T12:16:54.997Z,77.00
2022-08-18T12:19:25.202Z,77.30
2022-08-18T12:21:59.423Z,74.70
2022-08-18T12:24:36.769Z,75.00
2022-08-18T12:29:58.363Z,74.10
2022-08-18T12:32:46.709Z,73.60
2022-08-18T12:35:16.617Z,73.50
2022-08-18T12:38:00.385Z,74.60
2022-08-18T12:40:40.130Z,73.50
2022-08-18T12:43:09.658Z,74.00
2022-08-18T12:45:39.679Z,70.30
2022-08-18T12:48:10.127Z,69.90
2022-08-18T12:50:49.868Z,69.50
2022-08-18T12:56:20.945Z,69.90
2022-08-18T12:58:51.164Z,69.60
2022-08-18T13:01:19.673Z,67.80
2022-08-18T13:04:10.716Z,68.30
2022-08-18T13:06:41.157Z,68.50
2022-08-18T13:09:34.968Z,68.70
2022-08-18T13:12:14.736Z,67.50
2022-08-18T13:14:44.805Z,68.40
2022-08-18T13:17:33.153Z,66.80
2022-08-18T13:20:01.114Z,67.00
2022-08-18T13:22:32.754Z,65.80
2022-08-18T13:25:02.007Z,65.30
2022-08-18T13:27:33.807Z,66.10
2022-08-18T13:30:29.278Z,65.60
2022-08-18T13:32:58.606Z,66.00
2022-08-18T13:35:30.209Z,65.20
2022-08-18T13:38:15.847Z,63.90
2022-08-18T13:40:49.484Z,63.20
2022-08-18T13:43:23.356Z,62.90
2022-08-18T13:45:56.111Z,63.20
2022-08-18T13:48:25.575Z,63.90
2022-08-18T13:50:55.746Z,62.00
2022-08-18T13:53:27.229Z,64.00
2022-08-18T13:55:58.581Z,63.90
2022-08-18T13:58:28.263Z,64.30
2022-08-18T14:01:22.438Z,64.90
2022-08-18T14:03:49.850Z,65.30
2022-08-18T14:06:22.998Z,63.00
2022-08-18T14:08:52.922Z,61.70
2022-08-18T14:11:23.828Z,62.10
2022-08-18T14:13:54.745Z,61.90
2022-08-18T14:16:26.723Z,62.00
2022-08-18T14:19:12.979Z,60.70
2022-08-18T14:22:01.653Z,64.60
2022-08-18T14:24:48.612Z,63.80
2022-08-18T14:27:17.778Z,63.60
2022-08-18T14:29:48.663Z,63.60
2022-08-18T14:32:29.054Z,62.50
2022-08-18T14:35:00.286Z,62.80
2022-08-18T14:37:30.587Z,63.70
2022-08-18T14:40:02.286Z,62.70
2022-08-18T14:42:33.013Z,63.50
2022-08-18T14:45:26.497Z,62.10
2022-08-18T14:48:01.533Z,61.10
2022-08-18T14:50:30.019Z,61.90
2022-08-18T14:52:59.027Z,63.40
2022-08-18T14:55:27.635Z,61.90
2022-08-18T14:57:59.483Z,62.30
2022-08-18T15:00:29.311Z,64.40
2022-08-18T15:02:59.510Z,62.60
2022-08-18T15:05:33.933Z,63.80
2022-08-18T15:08:04.896Z,65.30
2022-08-18T15:10:34.035Z,65.00
2022-08-18T15:13:02.336Z,66.40
2022-08-18T15:15:50.711Z,68.30
2022-08-18T15:18:22.593Z,69.20
2022-08-18T15:21:34.856Z,70.50
2022-08-18T15:24:20.347Z,70.70
2022-08-18T15:26:51.709Z,72.30
2022-08-18T15:29:22.614Z,72.20
2022-08-18T15:31:59.795Z,72.70
2022-08-18T15:34:30.564Z,72.90
2022-08-18T15:37:09.504Z,72.80
2022-08-18T15:39:37.999Z,73.40
2022-08-18T15:42:12.022Z,73.30
2022-08-18T15:44:41.909Z,73.60
2022-08-18T15:47:13.610Z,73.00
2022-08-18T15:49:48.952Z,74.30
2022-08-18T15:52:20.558Z,74.80
2022-08-18T15:54:51.270Z,74.10
2022-08-18T15:57:38.505Z,74.00
2022-08-18T16:00:12.063Z,74.40
2022-08-18T16:02:48.419Z,75.10
2022-08-18T16:05:17.134Z,75.10
2022-08-18T16:07:47.766Z,74.40
2022-08-18T16:10:18.576Z,74.90
2022-08-18T16:12:46.958Z,74.30
2022-08-18T16:15:21.146Z,74.20
2022-08-18T16:17:50.577Z,74.40
2022-08-18T16:20:19.926Z,75.40
2022-08-18T16:22:49.444Z,75.50
2022-08-18T16:25:17.688Z,76.90
2022-08-18T16:27:47.876Z,76.70
2022-08-18T16:30:19.220Z,76.70
2022-08-18T16:32:47.509Z,76.40
2022-08-18T16:35:15.648Z,76.70
2022-08-18T16:37:44.319Z,77.30
2022-08-18T16:40:15.342Z,77.50
2022-08-18T16:42:43.396Z,77.60
2022-08-18T16:45:13.287Z,77.90
2022-08-18T16:47:42.181Z,76.60
2022-08-18T16:50:12.753Z,77.10
2022-08-18T16:52:41.393Z,76.60
2022-08-18T16:55:11.909Z,77.40
2022-08-18T16:57:59.514Z,77.00
2022-08-18T17:00:46.385Z,77.10
2022-08-18T17:03:41.325Z,77.30
2022-08-18T17:06:12.477Z,76.70
2022-08-18T17:08:42.628Z,77.20
2022-08-18T17:11:13.886Z,77.60
2022-08-18T17:13:44.799Z,77.20
2022-08-18T17:16:14.276Z,77.00
2022-08-18T17:18:43.302Z,76.90
2022-08-18T17:21:14.352Z,78.60
2022-08-18T17:23:43.412Z,78.80
2022-08-18T17:26:20.835Z,78.30
2022-08-18T17:28:55.725Z,78.00
2022-08-18T17:31:24.874Z,77.30
2022-08-18T17:33:57.345Z,77.20
2022-08-18T17:36:35.419Z,77.80
2022-08-18T17:39:06.647Z,77.40
2022-08-18T17:41:57.173Z,76.80
2022-08-18T17:44:31.302Z,77.00
2022-08-18T17:47:02.340Z,77.60
2022-08-18T17:49:47.643Z,78.00
2022-08-18T17:52:27.259Z,78.70
2022-08-18T17:55:22.922Z,80.00
2022-08-18T17:58:01.741Z,80.50
2022-08-18T18:00:42.148Z,80.80
2022-08-18T18:03:27.497Z,81.40
2022-08-18T18:06:32.674Z,82.10
2022-08-18T18:09:03.190Z,83.20
2022-08-18T18:11:34.520Z,83.60
2022-08-18T18:14:32.249Z,83.90
2022-08-18T18:17:07.528Z,85.00
2022-08-18T18:19:35.904Z,85.50
2022-08-18T18:22:08.343Z,86.00
2022-08-18T18:24:38.607Z,86.70
2022-08-18T18:27:26.966Z,87.30
2022-08-18T18:29:58.084Z,88.30
2022-08-18T18:32:30.725Z,88.40
2022-08-18T18:35:23.778Z,89.20
2022-08-18T18:37:58.313Z,89.70
2022-08-18T18:40:39.961Z,90.20
2022-08-18T18:43:23.944Z,90.40
2022-08-18T18:46:16.659Z,91.80
2022-08-18T18:48:56.805Z,91.90
2022-08-18T18:51:33.615Z,92.30
2022-08-18T18:54:15.598Z,93.00
2022-08-18T18:56:50.886Z,93.40
2022-08-18T18:59:27.143Z,93.70
2022-08-18T19:02:33.161Z,93.90
2022-08-18T19:05:17.890Z,94.20
2022-08-18T19:07:58.914Z,94.50
2022-08-18T19:10:34.911Z,95.20
2022-08-18T19:13:07.759Z,95.60
2022-08-18T19:15:38.404Z,96.00
2022-08-18T19:18:23.291Z,96.40
2022-08-18T19:22:01.990Z,96.80
2022-08-18T19:23:47.856Z,97.20
2022-08-18T19:26:22.802Z,97.50
2022-08-18T19:29:12.549Z,98.20
2022-08-18T19:31:45.831Z,98.90
2022-08-18T19:34:18.286Z,99.60
2022-08-18T19:36:52.014Z,99.90
2022-08-18T19:39:28.079Z,99.90
2022-08-18T19:42:00.984Z,99.90
2022-08-18T19:44:35.336Z,99.90
2022-08-18T19:47:12.452Z,99.90
2022-08-18T19:49:49.859Z,99.90
2022-08-18T19:52:46.304Z,99.90
2022-08-18T19:55:28.367Z,99.90
2022-08-18T19:58:14.523Z,99.90
2022-08-18T20:00:52.261Z,99.90
2022-08-18T20:03:39.946Z,99.90
2022-08-18T20:06:34.871Z,99.90
2022-08-18T20:09:50.855Z,99.90
2022-08-18T20:12:35.131Z,99.90
2022-08-18T20:15:09.769Z,99.90
2022-08-18T20:18:02.930Z,99.90
2022-08-18T20:20:32.154Z,99.90
2022-08-18T20:23:01.465Z,99.90
2022-08-18T20:25:41.910Z,99.90
2022-08-18T20:28:32.574Z,99.90
2022-08-18T20:31:07.609Z,99.90
2022-08-18T20:33:38.470Z,99.90
2022-08-18T20:36:31.128Z,99.90
2022-08-18T20:39:01.590Z,99.90
2022-08-18T20:41:42.443Z,99.90
2022-08-18T20:44:45.177Z,99.90
2022-08-18T20:47:33.241Z,99.90
2022-08-18T20:50:31.677Z,99.90
2022-08-18T20:53:10.999Z,99.90
2022-08-18T20:55:48.946Z,99.90
2022-08-18T20:58:26.515Z,99.90
2022-08-18T21:00:58.702Z,99.90
2022-08-18T21:03:38.857Z,99.90
2022-08-18T21:06:08.605Z,99.90
2022-08-18T21:08:39.811Z,99.90
2022-08-18T21:11:20.589Z,99.90
2022-08-18T21:14:03.996Z,99.90
2022-08-18T21:16:39.145Z,99.90
2022-08-18T21:19:13.908Z,99.90
2022-08-18T21:21:46.587Z,99.90
2022-08-18T21:24:27.033Z,99.90
2022-08-18T21:26:57.546Z,99.90
2022-08-18T21:29:44.205Z,99.90
2022-08-18T21:32:19.792Z,99.90
2022-08-18T21:34:48.591Z,99.90
2022-08-18T21:37:18.740Z,99.90
2022-08-18T21:39:54.237Z,99.90
2022-08-18T21:42:27.681Z,99.90
2022-08-18T21:45:00.611Z,99.90
2022-08-18T21:47:31.788Z,99.90
2022-08-18T21:50:09.499Z,99.90
2022-08-18T21:52:39.826Z,99.90
2022-08-18T21:55:13.475Z,99.90
2022-08-18T21:58:00.898Z,99.90
2022-08-18T22:00:32.058Z,99.90
2022-08-18T22:03:18.221Z,99.90
2022-08-18T22:05:59.087Z,99.90
2022-08-18T22:08:30.536Z,99.90
2022-08-18T22:12:02.154Z,99.90
2022-08-18T22:14:36.254Z,99.90
2022-08-18T22:17:35.165Z,99.90
2022-08-18T22:20:40.363Z,99.90
2022-08-18T22:23:39.588Z,99.90
2022-08-18T22:26:13.619Z,99.90
2022-08-18T22:28:52.647Z,99.90
2022-08-18T22:31:23.495Z,99.90
2022-08-18T22:33:54.194Z,99.90
2022-08-18T22:36:28.371Z,99.90
2022-08-18T22:38:56.994Z,99.90
2022-08-18T22:41:26.144Z,99.90
2022-08-18T22:43:55.443Z,99.90
2022-08-18T22:46:25.155Z,99.90
2022-08-18T22:48:54.723Z,99.90
2022-08-18T22:51:24.448Z,99.90
2022-08-18T22:53:52.806Z,99.90
2022-08-18T22:56:23.711Z,99.90
2022-08-18T22:59:03.650Z,99.90
2022-08-18T23:01:46.172Z,99.90
2022-08-18T23:04:16.944Z,99.90
2022-08-18T23:06:51.980Z,99.90
2022-08-18T23:09:21.969Z,99.90
2022-08-18T23:11:50.167Z,99.90
2022-08-18T23:14:18.541Z,99.90
2022-08-18T23:16:47.208Z,99.90
2022-08-18T23:19:19.169Z,99.90
2022-08-18T23:21:48.453Z,99.90
2022-08-18T23:24:17.813Z,99.90
2022-08-18T23:26:46.682Z,99.90
2022-08-18T23:29:15.410Z,99.90
2022-08-18T23:31:45.421Z,99.90
2022-08-18T23:34:15.614Z,99.90
2022-08-18T23:36:46.168Z,99.90
2022-08-18T23:39:14.727Z,99.90
2022-08-18T23:41:43.185Z,99.90
2022-08-18T23:44:13.837Z,99.90
2022-08-18T23:46:44.672Z,99.90
2022-08-18T23:49:15.059Z,99.90
2022-08-18T23:51:46.084Z,99.90
2022-08-18T23:54:17.810Z,99.90
2022-08-18T23:56:46.658Z,99.90
2022-08-18T23:59:16.426Z,99.90
